Time;durP1;ratioP1;P1;durP2;ratioP2;P2;SDS_P1;SDS_P2;PMS_P1;PMS_P2;Temp;Humidity;BMP_temperature;BMP_pressure;BME280_temperature;BME280_humidity;BME280_pressure;Samples;Min_cycle;Max_cycle;Signal;HPM_P1;HPM_P2
2020/12/30 00:00:10;;;;;;;3.80;1.85;;;;;;;6.00;76.96;97603.19;119246;1150;65025;-77
2020/12/30 00:02:57;;;;;;;4.93;2.47;;;;;;;5.99;77.22;97604.15;119224;1150;65144;-77
2020/12/30 00:05:23;;;;;;;4.15;2.30;;;;;;;6.00;77.67;97606.66;119053;1151;65522;-75
2020/12/30 00:07:50;;;;;;;4.03;2.47;;;;;;;6.04;77.40;97615.25;119218;1150;65451;-76
2020/12/30 00:10:19;;;;;;;2.90;2.57;;;;;;;6.04;77.43;97605.51;119245;1150;65117;-77
2020/12/30 00:12:46;;;;;;;3.80;2.77;;;;;;;6.00;77.80;97611.12;119029;1151;65185;-76
2020/12/30 00:15:14;;;;;;;4.00;3.25;;;;;;;5.93;77.77;97600.11;119260;1150;65120;-77
2020/12/30 00:17:42;;;;;;;6.90;3.50;;;;;;;5.89;77.79;97601.27;119062;1151;65183;-77
2020/12/30 00:20:12;;;;;;;6.00;4.70;;;;;;;5.84;77.71;97591.00;118991;1151;65201;-77
2020/12/30 00:22:43;;;;;;;6.27;4.17;;;;;;;5.85;77.90;97586.59;119246;1150;65236;-77
2020/12/30 00:25:10;;;;;;;7.97;4.25;;;;;;;5.87;78.36;97593.45;119276;1149;65063;-77
2020/12/30 00:27:41;;;;;;;6.27;4.30;;;;;;;5.93;78.38;97579.83;118977;1150;65175;-76
2020/12/30 00:30:17;;;;;;;5.00;4.10;;;;;;;6.04;78.42;97583.52;119047;1150;65165;-77
2020/12/30 00:32:46;;;;;;;5.57;4.90;;;;;;;6.06;78.16;97578.97;119238;1150;65123;-77
2020/12/30 00:35:15;;;;;;;7.50;5.20;;;;;;;6.08;78.50;97592.91;119064;1151;65185;-76
2020/12/30 00:37:42;;;;;;;6.90;6.03;;;;;;;6.05;78.49;97586.03;119247;1150;65124;-77
2020/12/30 00:40:08;;;;;;;7.00;6.30;;;;;;;5.99;78.60;97582.99;119012;1150;65153;-80
2020/12/30 00:42:37;;;;;;;8.63;7.00;;;;;;;5.89;78.69;97588.05;119219;1150;65117;-77
2020/12/30 00:45:06;;;;;;;7.90;6.75;;;;;;;5.82;78.54;97592.94;119260;1150;65116;-76
2020/12/30 00:47:33;;;;;;;9.40;7.07;;;;;;;5.77;78.83;97599.50;119069;1150;65278;-79
2020/12/30 00:50:00;;;;;;;7.17;5.53;;;;;;;5.78;78.80;97595.89;118976;1150;65188;-79
2020/12/30 00:52:27;;;;;;;7.33;6.00;;;;;;;5.78;78.88;97601.18;119235;1150;65156;-76
2020/12/30 00:54:54;;;;;;;8.07;7.27;;;;;;;5.76;78.99;97600.44;119219;1150;65216;-77
2020/12/30 00:57:20;;;;;;;12.25;9.80;;;;;;;5.73;79.18;97599.69;118663;1151;65166;-75
2020/12/30 00:59:47;;;;;;;15.73;11.37;;;;;;;5.69;79.39;97597.39;118641;1149;65115;-77
2020/12/30 01:02:13;;;;;;;17.57;13.10;;;;;;;5.65;79.23;97606.47;118678;1150;65120;-78
2020/12/30 01:04:39;;;;;;;18.73;11.90;;;;;;;5.60;79.81;97612.06;118664;1151;65104;-77
2020/12/30 01:07:06;;;;;;;13.80;10.30;;;;;;;5.56;79.66;97610.60;118634;1150;65031;-77
2020/12/30 01:09:32;;;;;;;13.53;8.73;;;;;;;5.54;79.42;97604.57;119047;1151;65117;-77
2020/12/30 01:12:04;;;;;;;10.57;7.77;;;;;;;5.50;79.65;97596.02;118600;1151;65185;-78
2020/12/30 01:14:33;;;;;;;8.95;7.60;;;;;;;5.52;79.71;97595.05;119192;1151;65114;-79
2020/12/30 01:16:59;;;;;;;10.80;7.75;;;;;;;5.50;80.01;97597.79;118825;1151;65099;-77
2020/12/30 01:19:26;;;;;;;11.47;8.83;;;;;;;5.49;79.97;97609.32;118632;1151;65176;-77
2020/12/30 01:21:52;;;;;;;11.50;10.07;;;;;;;5.48;80.06;97610.28;118975;1151;66796;-77
2020/12/30 01:24:19;;;;;;;10.57;9.40;;;;;;;5.47;79.81;97605.93;119009;1150;65127;-77
2020/12/30 01:26:46;;;;;;;10.50;8.70;;;;;;;5.46;80.08;97612.18;118603;1151;65071;-77
2020/12/30 01:29:13;;;;;;;9.27;7.10;;;;;;;5.42;79.99;97600.95;118447;1151;65184;-76
2020/12/30 01:31:39;;;;;;;11.30;8.43;;;;;;;5.44;79.96;97606.14;118733;1151;65108;-78
2020/12/30 01:34:06;;;;;;;10.73;8.37;;;;;;;5.40;79.90;97608.16;119000;1151;65075;-78
2020/12/30 01:36:34;;;;;;;11.57;8.80;;;;;;;5.43;80.31;97602.66;119029;1151;65223;-79
2020/12/30 01:39:02;;;;;;;12.77;9.30;;;;;;;5.49;79.98;97599.59;118772;1150;65055;-78
2020/12/30 01:41:29;;;;;;;14.80;10.40;;;;;;;5.52;80.25;97603.83;118450;1150;65184;-76
2020/12/30 01:44:01;;;;;;;16.00;14.03;;;;;;;5.54;80.14;97603.73;118419;1151;65279;-77
2020/12/30 01:46:35;;;;;;;16.07;11.63;;;;;;;5.53;80.33;97602.89;118703;1150;65142;-78
2020/12/30 01:49:04;;;;;;;16.07;12.93;;;;;;;5.50;80.21;97605.72;119236;1150;65121;-77
2020/12/30 01:51:31;;;;;;;14.47;10.80;;;;;;;5.44;80.17;97603.50;119052;1151;65120;-77
2020/12/30 01:53:59;;;;;;;11.93;10.67;;;;;;;5.38;80.06;97601.30;119240;1151;65140;-76
2020/12/30 01:56:31;;;;;;;14.47;10.53;;;;;;;5.36;80.18;97595.26;119144;1150;65220;-76
2020/12/30 01:58:57;;;;;;;14.13;10.67;;;;;;;5.37;80.28;97599.58;118639;1150;65196;-76
2020/12/30 02:01:28;;;;;;;13.40;12.00;;;;;;;5.39;80.45;97603.81;119040;1150;65098;-77
2020/12/30 02:03:58;;;;;;;14.60;12.73;;;;;;;5.38;80.28;97596.01;119280;1150;65115;-77
2020/12/30 02:06:25;;;;;;;17.70;15.97;;;;;;;5.41;80.65;97596.63;119262;1150;65102;-78
2020/12/30 02:08:53;;;;;;;18.00;16.10;;;;;;;5.40;80.49;97596.76;118612;1150;65097;-78
2020/12/30 02:11:23;;;;;;;16.25;14.50;;;;;;;5.35;80.31;97589.14;118669;1150;65199;-78
2020/12/30 02:14:02;;;;;;;15.17;13.57;;;;;;;5.30;80.30;97585.13;119254;1150;65117;-77
2020/12/30 02:16:29;;;;;;;13.90;12.40;;;;;;;5.24;80.65;97575.83;118963;1150;65104;-76
2020/12/30 02:18:57;;;;;;;13.70;11.60;;;;;;;5.22;80.57;97583.00;119132;1150;65031;-77
2020/12/30 02:21:23;;;;;;;20.13;15.07;;;;;;;5.20;80.87;97575.17;119159;1150;65100;-76
2020/12/30 02:23:51;;;;;;;21.20;18.83;;;;;;;5.23;81.01;97585.52;118424;1151;65203;-76
2020/12/30 02:26:18;;;;;;;17.63;15.07;;;;;;;5.25;81.01;97582.78;119258;1151;65079;-77
2020/12/30 02:28:45;;;;;;;19.50;17.40;;;;;;;5.24;81.21;97579.30;119230;1150;65143;-77
2020/12/30 02:31:11;;;;;;;20.37;18.23;;;;;;;5.21;81.27;97570.73;119247;1150;65053;-76
2020/12/30 02:33:37;;;;;;;20.93;18.87;;;;;;;5.16;80.79;97580.75;118983;1150;65121;-76
2020/12/30 02:36:04;;;;;;;17.67;14.27;;;;;;;5.18;80.97;97576.22;118839;1150;65107;-77
2020/12/30 02:38:30;;;;;;;12.57;11.33;;;;;;;5.17;81.25;97578.02;118885;1151;65121;-77
2020/12/30 02:41:00;;;;;;;12.53;11.23;;;;;;;5.14;81.13;97587.95;119250;1151;65137;-79
2020/12/30 02:43:27;;;;;;;12.58;11.28;;;;;;;5.13;81.10;97580.97;119201;1151;65074;-77
2020/12/30 02:45:54;;;;;;;12.87;11.57;;;;;;;5.13;81.28;97580.97;119108;1150;65123;-77
2020/12/30 02:48:20;;;;;;;10.57;9.47;;;;;;;5.14;81.12;97577.39;118605;1151;65198;-77
2020/12/30 02:50:47;;;;;;;11.30;10.00;;;;;;;5.15;80.97;97577.27;118399;1150;65571;-77
2020/12/30 02:53:13;;;;;;;10.47;9.43;;;;;;;5.15;81.02;97573.80;119180;1150;65214;-77
2020/12/30 02:55:40;;;;;;;10.50;9.40;;;;;;;5.16;81.09;97571.06;119044;1151;65162;-77
2020/12/30 02:58:06;;;;;;;11.63;8.97;;;;;;;5.16;81.12;97567.55;119222;1151;65255;-77
2020/12/30 03:00:33;;;;;;;11.47;9.40;;;;;;;5.16;81.08;97567.55;119240;1150;65120;-77
2020/12/30 03:02:59;;;;;;;10.70;8.97;;;;;;;5.13;81.14;97565.96;119204;1150;65201;-76
2020/12/30 03:05:25;;;;;;;13.63;12.23;;;;;;;5.10;81.29;97560.05;119227;1150;65559;-77
2020/12/30 03:07:52;;;;;;;12.80;11.50;;;;;;;5.05;81.30;97553.30;119239;1150;65042;-77
2020/12/30 03:10:18;;;;;;;14.97;11.47;;;;;;;5.00;81.36;97554.54;118953;1151;65190;-77
2020/12/30 03:12:45;;;;;;;11.63;10.50;;;;;;;4.95;81.39;97559.28;119011;1150;65264;-77
2020/12/30 03:15:11;;;;;;;12.13;10.93;;;;;;;4.91;81.45;97565.73;118934;1150;65140;-77
2020/12/30 03:17:37;;;;;;;16.23;12.13;;;;;;;4.90;81.44;97571.94;118455;1151;65123;-78
2020/12/30 03:20:04;;;;;;;13.90;11.37;;;;;;;4.88;81.56;97569.42;118613;1150;65144;-77
2020/12/30 03:22:31;;;;;;;13.00;11.60;;;;;;;4.91;81.62;97577.13;118614;1149;65200;-77
2020/12/30 03:24:57;;;;;;;14.67;13.27;;;;;;;4.90;81.63;97564.89;118656;1150;65217;-77
2020/12/30 03:27:24;;;;;;;17.70;15.83;;;;;;;4.92;81.64;97570.05;119100;1150;65121;-76
2020/12/30 03:29:50;;;;;;;19.83;16.40;;;;;;;4.90;81.38;97566.66;119251;1150;65162;-77
2020/12/30 03:32:17;;;;;;;16.93;15.27;;;;;;;4.88;81.24;97573.86;118550;1150;65130;-79
2020/12/30 03:34:43;;;;;;;15.30;13.60;;;;;;;4.86;81.51;97566.03;118403;1151;65151;-75
2020/12/30 03:37:09;;;;;;;14.25;12.40;;;;;;;4.82;81.65;97578.60;118935;1151;65207;-77
2020/12/30 03:39:36;;;;;;;13.33;11.90;;;;;;;4.83;81.56;97568.88;119006;1151;65196;-77
2020/12/30 03:42:04;;;;;;;12.25;11.05;;;;;;;4.82;81.50;97568.05;119221;1151;65098;-77
2020/12/30 03:44:30;;;;;;;16.53;11.37;;;;;;;4.76;81.42;97576.34;119138;1150;65123;-77
2020/12/30 03:46:57;;;;;;;17.95;16.05;;;;;;;4.72;81.63;97569.59;118394;1150;65159;-77
2020/12/30 03:49:23;;;;;;;29.43;20.60;;;;;;;4.73;81.38;97563.36;118660;1151;65118;-77
2020/12/30 03:51:50;;;;;;;18.90;16.93;;;;;;;4.74;81.80;97557.16;119154;1151;65129;-77
2020/12/30 03:54:16;;;;;;;16.37;13.23;;;;;;;4.77;81.66;97559.58;119121;1151;65155;-76
2020/12/30 03:56:43;;;;;;;13.60;11.80;;;;;;;4.77;81.78;97566.66;119044;1151;65025;-76
2020/12/30 03:59:09;;;;;;;11.25;10.15;;;;;;;4.76;81.84;97567.59;119106;1151;65065;-77
2020/12/30 04:01:35;;;;;;;12.80;9.83;;;;;;;4.75;81.68;97569.39;119067;1149;65139;-79
2020/12/30 04:04:02;;;;;;;12.80;11.17;;;;;;;4.74;82.15;97570.34;118981;1150;65111;-76
2020/12/30 04:06:28;;;;;;;13.57;12.13;;;;;;;4.74;81.92;97567.70;118708;1150;65102;-76
2020/12/30 04:08:54;;;;;;;12.43;10.90;;;;;;;4.72;81.96;97572.23;118655;1150;65112;-77
2020/12/30 04:11:21;;;;;;;12.60;10.23;;;;;;;4.73;81.70;97570.44;118930;1150;65169;-79
2020/12/30 04:13:47;;;;;;;9.33;8.33;;;;;;;4.73;81.63;97571.28;119050;1150;65155;-78
2020/12/30 04:16:23;;;;;;;9.17;7.83;;;;;;;4.74;81.62;97567.70;119234;1150;65162;-76
2020/12/30 04:18:50;;;;;;;9.77;7.80;;;;;;;4.77;81.66;97572.78;119225;1150;65134;-77
2020/12/30 04:21:21;;;;;;;10.93;9.60;;;;;;;4.81;81.50;97570.77;119184;1151;65034;-77
2020/12/30 04:23:52;;;;;;;17.73;13.73;;;;;;;4.84;81.73;97573.20;119245;1151;65162;-77
2020/12/30 04:26:19;;;;;;;11.87;9.53;;;;;;;4.84;81.36;97560.88;119284;1150;65548;-77
2020/12/30 04:28:46;;;;;;;10.00;8.60;;;;;;;4.83;81.74;97563.60;119230;1150;65170;-76
2020/12/30 04:31:14;;;;;;;12.93;11.63;;;;;;;4.82;81.57;97562.77;118518;1150;65143;-76
2020/12/30 04:33:40;;;;;;;12.00;9.20;;;;;;;4.83;81.29;97559.16;119200;1150;65291;-76
2020/12/30 04:36:08;;;;;;;9.13;6.90;;;;;;;4.83;81.42;97543.33;118921;1150;65245;-79
2020/12/30 04:38:36;;;;;;;8.67;6.27;;;;;;;4.85;81.66;97540.59;119232;1150;66257;-78
2020/12/30 04:41:05;;;;;;;7.90;6.30;;;;;;;4.85;81.39;97548.52;119236;1151;65124;-76
2020/12/30 04:43:35;;;;;;;9.23;6.97;;;;;;;4.84;81.29;97562.64;119008;1151;65182;-76
2020/12/30 04:46:03;;;;;;;9.77;6.57;;;;;;;4.82;81.51;97560.13;119242;1150;65136;-76
2020/12/30 04:48:33;;;;;;;9.87;6.53;;;;;;;4.80;81.40;97569.09;119278;1150;65038;-77
2020/12/30 04:51:02;;;;;;;9.05;7.00;;;;;;;4.79;81.28;97568.25;119256;1150;65095;-77
2020/12/30 04:53:30;;;;;;;8.60;6.40;;;;;;;4.79;81.39;97565.61;119243;1150;65214;-77
2020/12/30 04:55:59;;;;;;;9.23;7.20;;;;;;;4.80;81.49;97577.01;119228;1150;65148;-77
2020/12/30 04:58:28;;;;;;;7.65;6.20;;;;;;;4.80;81.46;97588.41;119303;1150;65114;-77
2020/12/30 05:00:57;;;;;;;8.73;7.00;;;;;;;4.82;81.16;97594.44;119283;1150;65083;-77
2020/12/30 05:03:31;;;;;;;7.87;6.23;;;;;;;4.82;81.39;97577.77;119283;1150;65593;-77
2020/12/30 05:06:05;;;;;;;9.75;7.30;;;;;;;4.83;81.13;97592.64;118893;1151;65222;-77
2020/12/30 05:08:39;;;;;;;8.80;6.57;;;;;;;4.82;81.42;97588.31;118457;1151;65195;-78
2020/12/30 05:11:06;;;;;;;8.60;6.40;;;;;;;4.79;81.22;97599.92;119183;1150;65262;-77
2020/12/30 05:13:32;;;;;;;7.60;6.13;;;;;;;4.77;81.22;97593.89;118602;1151;65153;-77
2020/12/30 05:15:59;;;;;;;7.77;6.50;;;;;;;4.78;81.14;97602.65;118823;1151;65166;-78
2020/12/30 05:18:25;;;;;;;8.20;6.00;;;;;;;4.78;81.41;97600.85;118623;1150;65086;-78
2020/12/30 05:20:52;;;;;;;7.50;5.90;;;;;;;4.78;81.10;97594.73;118836;1150;65220;-79
2020/12/30 05:23:18;;;;;;;7.27;6.50;;;;;;;4.78;81.31;97598.21;118436;1150;65087;-79
2020/12/30 05:25:45;;;;;;;8.60;7.45;;;;;;;4.79;81.09;97594.64;118482;1150;65201;-79
2020/12/30 05:28:14;;;;;;;10.10;7.50;;;;;;;4.79;81.26;97599.92;118424;1150;65066;-76
2020/12/30 05:30:44;;;;;;;9.03;8.13;;;;;;;4.79;81.04;97585.86;118671;1150;65163;-79
2020/12/30 05:33:12;;;;;;;8.70;7.77;;;;;;;4.78;81.38;97592.09;118908;1151;65165;-78
2020/12/30 05:35:38;;;;;;;8.00;7.20;;;;;;;4.77;81.13;97591.25;118402;1151;65189;-77
2020/12/30 05:38:05;;;;;;;8.80;6.80;;;;;;;4.77;80.86;97593.05;119225;1150;65128;-77
2020/12/30 05:40:34;;;;;;;8.20;7.40;;;;;;;4.79;81.05;97589.37;118415;1150;65119;-77
2020/12/30 05:43:15;;;;;;;9.47;8.47;;;;;;;4.83;80.92;97587.36;118513;1150;65298;-77
2020/12/30 05:45:52;;;;;;;8.23;6.97;;;;;;;4.84;80.86;97583.76;118634;1151;65125;-76
2020/12/30 05:48:20;;;;;;;8.47;6.80;;;;;;;4.87;81.07;97588.86;118626;1151;65114;-77
2020/12/30 05:50:54;;;;;;;11.00;9.20;;;;;;;4.88;80.80;97582.63;118706;1150;65155;-77
2020/12/30 05:53:22;;;;;;;8.90;7.90;;;;;;;4.87;80.82;97594.14;118631;1150;65140;-77
2020/12/30 05:56:07;;;;;;;8.80;7.27;;;;;;;4.87;80.68;97590.63;118719;1151;65135;-76
2020/12/30 05:58:42;;;;;;;9.53;7.70;;;;;;;4.88;80.72;97594.98;119026;1150;65172;-77
2020/12/30 06:01:27;;;;;;;10.30;9.00;;;;;;;4.89;80.79;97589.58;118612;1150;65168;-77
2020/12/30 06:03:54;;;;;;;11.30;8.60;;;;;;;4.92;80.82;97584.09;118701;1150;65091;-75
2020/12/30 06:06:21;;;;;;;12.50;10.20;;;;;;;4.93;80.82;97591.08;119235;1149;65195;-77
2020/12/30 06:08:49;;;;;;;12.37;9.90;;;;;;;4.94;80.92;97598.05;119262;1151;65114;-75
2020/12/30 06:11:30;;;;;;;16.43;10.67;;;;;;;4.93;80.76;97606.08;119283;1150;65128;-76
2020/12/30 06:14:06;;;;;;;15.30;11.53;;;;;;;4.90;80.67;97608.90;119258;1150;65185;-78
2020/12/30 06:16:34;;;;;;;11.65;8.80;;;;;;;;;;119252;1150;65436;-77
2020/12/30 06:19:00;;;;;;;11.80;9.20;;;;;;;4.88;80.65;97616.94;119272;1150;65558;-77
2020/12/30 06:21:27;;;;;;;11.67;9.73;;;;;;;4.86;80.73;97612.70;119057;1150;65170;-76
2020/12/30 06:23:56;;;;;;;11.07;9.90;;;;;;;4.83;81.15;97619.03;119239;1150;65095;-78
2020/12/30 06:26:29;;;;;;;12.47;10.13;;;;;;;4.86;80.85;97620.63;119230;1151;65130;-77
2020/12/30 06:28:56;;;;;;;15.13;9.97;;;;;;;4.83;80.92;97619.88;119240;1150;65121;-77
2020/12/30 06:31:22;;;;;;;13.40;11.03;;;;;;;4.79;81.43;97625.45;119221;1151;65104;-77
2020/12/30 06:33:49;;;;;;;14.07;10.13;;;;;;;4.78;80.66;97632.52;119252;1151;65096;-76
2020/12/30 06:36:25;;;;;;;12.90;10.67;;;;;;;4.75;80.98;97635.37;119241;1151;65121;-79
2020/12/30 06:38:52;;;;;;;12.45;9.80;;;;;;;4.72;81.22;97622.37;119191;1150;65700;-75
2020/12/30 06:41:18;;;;;;;15.93;11.67;;;;;;;4.72;81.19;97622.37;118973;1151;65180;-79
2020/12/30 06:43:47;;;;;;;12.80;9.90;;;;;;;4.73;81.02;97624.06;119223;1150;65133;-77
2020/12/30 06:46:24;;;;;;;16.00;10.83;;;;;;;4.73;81.14;97621.42;119213;1150;65165;-77
2020/12/30 06:48:57;;;;;;;14.47;10.93;;;;;;;4.69;81.12;97624.38;119233;1150;65031;-76
2020/12/30 06:51:27;;;;;;;15.07;11.60;;;;;;;4.70;81.16;97626.06;119237;1151;65252;-77
2020/12/30 06:53:55;;;;;;;17.60;12.53;;;;;;;4.72;81.54;97632.93;119297;1150;65114;-77
2020/12/30 06:56:41;;;;;;;18.23;16.23;;;;;;;4.74;81.38;97633.69;119284;1151;65124;-77
2020/12/30 06:59:08;;;;;;;16.30;13.67;;;;;;;4.75;81.26;97619.53;119268;1150;65130;-77
2020/12/30 07:01:54;;;;;;;16.27;12.40;;;;;;;4.75;81.30;97632.73;118957;1150;65142;-77
2020/12/30 07:04:21;;;;;;;17.05;12.45;;;;;;;4.72;80.71;97627.66;119186;1151;65156;-77
2020/12/30 07:06:48;;;;;;;15.20;11.70;;;;;;;4.72;80.96;97619.73;119259;1150;65171;-77
2020/12/30 07:09:15;;;;;;;17.30;12.40;;;;;;;4.74;81.08;97627.53;119236;1150;65220;-77
2020/12/30 07:11:53;;;;;;;18.03;13.07;;;;;;;4.77;81.12;97625.56;119202;1150;65060;-77
2020/12/30 07:14:20;;;;;;;17.67;14.17;;;;;;;4.79;81.00;97626.31;119224;1151;65114;-76
2020/12/30 07:16:47;;;;;;;18.03;13.97;;;;;;;4.83;81.10;97625.15;119223;1151;65188;-77
2020/12/30 07:19:23;;;;;;;20.50;14.80;;;;;;;4.83;80.90;97630.43;119247;1151;65050;-76
2020/12/30 07:22:06;;;;;;;20.77;17.00;;;;;;;4.80;80.61;97632.44;119181;1150;65127;-77
2020/12/30 07:24:56;;;;;;;21.00;18.40;;;;;;;4.79;81.36;97636.00;119166;1150;65558;-78
2020/12/30 07:27:29;;;;;;;18.60;14.40;;;;;;;4.80;81.08;97625.36;118778;1151;65146;-77
2020/12/30 07:29:55;;;;;;;18.53;14.63;;;;;;;4.82;80.51;97627.91;118689;1150;65249;-76
2020/12/30 07:32:22;;;;;;;19.83;14.70;;;;;;;4.82;81.05;97630.55;119083;1150;65510;-78
2020/12/30 07:34:50;;;;;;;20.60;14.27;;;;;;;4.87;80.94;97622.30;119204;1151;65094;-77
2020/12/30 07:37:18;;;;;;;23.97;17.10;;;;;;;4.93;80.87;97621.92;118635;1151;65277;-77
2020/12/30 07:39:46;;;;;;;22.93;17.77;;;;;;;4.93;80.62;97629.84;119234;1150;65114;-76
2020/12/30 07:42:16;;;;;;;24.40;18.63;;;;;;;4.88;80.43;97637.22;119189;1150;65067;-77
2020/12/30 07:44:46;;;;;;;;;;;;;;;4.85;80.58;97630.34;118995;1151;65100;-77
2020/12/30 07:47:14;;;;;;;30.43;25.32;;;;;;;4.78;80.50;97629.88;119225;1150;65619;-79
2020/12/30 07:49:41;;;;;;;25.83;20.00;;;;;;;4.73;80.50;97631.97;119205;1151;65117;-77
2020/12/30 07:52:08;;;;;;;26.47;20.20;;;;;;;4.74;80.66;97638.09;119245;1150;65114;-77
2020/12/30 07:54:35;;;;;;;24.25;19.80;;;;;;;4.78;80.65;97634.32;118982;1151;65152;-77
2020/12/30 07:57:09;;;;;;;25.10;19.23;;;;;;;4.82;80.61;97643.75;119216;1150;65118;-75
2020/12/30 07:59:38;;;;;;;26.23;19.77;;;;;;;4.89;80.26;97636.25;119211;1150;65092;-77
2020/12/30 08:02:06;;;;;;;26.30;19.50;;;;;;;4.89;80.35;97631.81;119251;1150;65054;-77
2020/12/30 08:04:37;;;;;;;26.10;19.83;;;;;;;4.88;80.20;97626.66;119234;1150;65097;-77
2020/12/30 08:07:15;;;;;;;25.83;19.63;;;;;;;4.86;80.37;97636.46;119227;1151;65261;-77
2020/12/30 08:09:43;;;;;;;34.03;25.00;;;;;;;4.81;80.14;97636.75;119292;1150;65612;-77
2020/12/30 08:12:12;;;;;;;31.77;23.20;;;;;;;4.77;80.20;97645.84;118868;1150;65045;-77
2020/12/30 08:14:43;;;;;;;46.70;32.00;;;;;;;4.74;80.22;97646.87;118700;1150;65754;-76
2020/12/30 08:17:13;;;;;;;36.63;26.17;;;;;;;4.73;80.14;97645.17;118642;1150;65118;-77
2020/12/30 08:19:45;;;;;;;35.75;26.85;;;;;;;4.74;80.46;97646.87;118980;1150;65169;-78
2020/12/30 08:22:12;;;;;;;48.80;36.20;;;;;;;4.72;80.19;97661.13;119251;1150;65204;-78
2020/12/30 08:24:45;;;;;;;46.10;33.17;;;;;;;4.69;80.72;97659.53;119236;1150;65114;-78
2020/12/30 08:27:17;;;;;;;45.03;34.57;;;;;;;4.67;80.39;97660.56;119213;1150;65127;-76
2020/12/30 08:29:44;;;;;;;57.10;37.53;;;;;;;4.67;80.34;97660.56;118966;1151;65092;-77
2020/12/30 08:32:35;;;;;;;47.17;34.33;;;;;;;4.69;80.55;97661.33;118978;1151;65118;-77
2020/12/30 08:35:08;;;;;;;43.97;30.70;;;;;;;4.71;80.38;97662.05;118688;1150;65207;-77
2020/12/30 08:37:37;;;;;;;40.87;29.10;;;;;;;4.72;80.72;97656.69;118760;1151;65095;-78
2020/12/30 08:40:04;;;;;;;40.07;28.90;;;;;;;4.76;80.95;97659.96;118987;1150;65117;-77
2020/12/30 08:42:52;;;;;;;42.45;30.25;;;;;;;4.81;80.73;97657.88;118900;1151;65098;-76
2020/12/30 08:45:26;;;;;;;51.85;38.60;;;;;;;4.90;80.66;97659.05;118660;1151;65204;-78
2020/12/30 08:47:55;;;;;;;42.23;32.90;;;;;;;4.93;80.23;97659.72;118696;1151;65198;-77
2020/12/30 08:50:23;;;;;;;29.90;24.10;;;;;;;4.98;80.54;97654.14;118774;1150;65220;-77
2020/12/30 08:52:51;;;;;;;31.20;21.73;;;;;;;5.03;80.48;97649.41;118629;1150;65039;-78
2020/12/30 08:55:18;;;;;;;27.97;20.00;;;;;;;5.06;80.09;97657.12;118618;1150;65034;-77
2020/12/30 08:57:46;;;;;;;26.35;19.50;;;;;;;5.04;80.14;97659.02;118711;1150;65136;-77
2020/12/30 09:00:18;;;;;;;27.50;22.60;;;;;;;5.02;80.19;97661.74;118889;1150;65118;-77
2020/12/30 09:02:46;;;;;;;29.60;22.30;;;;;;;4.99;80.33;97663.75;119077;1150;65121;-77
2020/12/30 09:05:13;;;;;;;35.03;24.50;;;;;;;4.97;80.24;97658.55;119156;1150;65129;-77
2020/12/30 09:07:39;;;;;;;36.63;24.60;;;;;;;4.93;80.14;97658.88;118996;1151;65196;-77
2020/12/30 09:10:10;;;;;;;35.27;25.03;;;;;;;4.87;79.92;97659.26;119258;1151;65181;-77
2020/12/30 09:12:39;;;;;;;33.73;23.20;;;;;;;4.81;80.26;97656.07;118981;1150;65122;-76
2020/12/30 09:15:07;;;;;;;31.62;23.02;;;;;;;4.81;80.37;97652.59;119247;1150;65063;-79
2020/12/30 09:17:36;;;;;;;33.30;24.65;;;;;;;4.75;80.21;97661.76;119239;1150;65030;-78
2020/12/30 09:20:13;;;;;;;;;;;;;;;4.72;80.40;97659.32;119310;1150;65146;-76
2020/12/30 09:22:41;;;;;;;32.20;24.13;;;;;;;4.67;80.69;97663.20;119024;1151;65221;-79
2020/12/30 09:25:23;;;;;;;32.40;22.05;;;;;;;4.60;80.54;97658.30;118818;1151;65082;-79
2020/12/30 09:27:50;;;;;;;32.33;20.43;;;;;;;4.53;80.73;97650.88;118672;1150;65100;-78
2020/12/30 09:30:19;;;;;;;32.90;21.40;;;;;;;4.48;80.78;97651.20;119260;1151;65121;-81
2020/12/30 09:32:47;;;;;;;30.07;20.70;;;;;;;4.46;80.69;97647.80;118753;1150;65232;-80
2020/12/30 09:35:16;;;;;;;30.87;21.63;;;;;;;4.46;81.05;97649.59;118691;1151;65166;-82
2020/12/30 09:37:52;;;;;;;28.00;20.80;;;;;;;4.44;81.01;97651.48;118908;1151;65207;-84
2020/12/30 09:40:18;;;;;;;32.43;21.80;;;;;;;4.40;81.32;97658.75;119243;1150;65570;-83
2020/12/30 09:42:46;;;;;;;33.47;23.07;;;;;;;4.42;81.38;97656.00;119386;1150;65106;-82
2020/12/30 09:45:15;;;;;;;28.80;23.00;;;;;;;4.41;81.24;97660.44;119411;1151;65178;-88
2020/12/30 09:47:42;;;;;;;39.50;27.73;;;;;;;4.43;81.61;97663.83;119272;1151;65127;-83
2020/12/30 09:50:12;;;;;;;36.63;27.20;;;;;;;4.48;81.69;97661.75;119439;1150;65088;-86
2020/12/30 09:52:43;;;;;;;;;;;;;;;4.54;81.79;97661.34;119138;1150;64988;-91
2020/12/30 09:55:11;;;;;;;45.53;31.57;;;;;;;4.58;81.39;97661.98;118867;1151;65047;-85
2020/12/30 09:57:38;;;;;;;54.57;40.97;;;;;;;4.65;81.89;97667.73;118989;1149;65551;-85
2020/12/30 10:00:07;;;;;;;51.80;36.40;;;;;;;4.69;81.74;97662.16;119372;1150;65157;-86
2020/12/30 10:02:34;;;;;;;51.37;35.37;;;;;;;4.73;81.48;97666.28;119219;1150;65170;-87
2020/12/30 10:05:01;;;;;;;50.43;33.80;;;;;;;4.75;81.64;97660.92;118946;1151;65159;-88
2020/12/30 10:07:27;;;;;;;51.93;35.87;;;;;;;4.77;81.45;97666.95;119617;1150;65126;-94
2020/12/30 10:09:54;;;;;;;50.23;34.40;;;;;;;4.74;81.58;97661.84;122584;1111;63954;-91
2020/12/30 10:12:22;;;;;;;52.07;35.63;;;;;;;4.77;81.75;97654.59;120467;1151;65130;-93
2020/12/30 10:14:49;;;;;;;47.33;34.23;;;;;;;4.83;81.75;97656.83;119142;1151;65123;-87
2020/12/30 10:17:16;;;;;;;46.13;34.60;;;;;;;4.86;81.22;97649.66;119380;1151;65057;-89
2020/12/30 10:19:42;;;;;;;48.70;34.25;;;;;;;4.81;81.52;97653.44;119186;1150;65095;-87
2020/12/30 10:22:10;;;;;;;51.30;35.65;;;;;;;4.83;81.20;97651.55;119389;1150;65116;-86
2020/12/30 10:24:44;;;;;;;48.05;36.60;;;;;;;4.87;81.50;97648.70;119386;1150;65153;-85
2020/12/30 10:27:12;;;;;;;44.77;34.00;;;;;;;4.87;81.31;97651.34;119396;1150;65142;-82
2020/12/30 10:29:39;;;;;;;40.33;33.10;;;;;;;4.84;81.30;97647.98;119411;1150;65117;-82
2020/12/30 10:32:06;;;;;;;45.80;34.35;;;;;;;4.87;81.67;97648.70;119441;1149;65072;-79
2020/12/30 10:34:33;;;;;;;44.67;34.33;;;;;;;4.89;81.76;97650.30;119295;1150;65110;-85
2020/12/30 10:37:00;;;;;;;44.57;36.23;;;;;;;4.99;81.89;97645.27;119357;1151;65548;-82
2020/12/30 10:39:26;;;;;;;48.10;38.33;;;;;;;5.07;81.53;97648.24;119173;1151;65194;-82
2020/12/30 10:41:54;;;;;;;49.27;39.63;;;;;;;5.07;81.82;97642.96;119406;1151;65173;-84
2020/12/30 10:44:22;;;;;;;47.05;37.50;;;;;;;5.04;81.47;97638.73;119383;1150;65166;-85
2020/12/30 10:46:49;;;;;;;52.27;39.77;;;;;;;5.03;81.56;97626.48;119413;1150;65045;-84
2020/12/30 10:49:15;;;;;;;49.67;37.50;;;;;;;5.00;81.40;97631.11;119369;1149;65073;-82
2020/12/30 10:51:46;;;;;;;45.00;35.60;;;;;;;4.96;81.29;97630.47;119412;1150;65178;-84
2020/12/30 10:54:13;;;;;;;46.43;36.70;;;;;;;4.95;81.38;97627.92;119429;1150;65149;-86
2020/12/30 10:56:40;;;;;;;45.97;36.27;;;;;;;4.91;81.23;97618.53;119389;1151;65037;-81
2020/12/30 10:59:07;;;;;;;52.87;39.57;;;;;;;4.84;81.19;97615.44;119406;1149;65143;-86
2020/12/30 11:01:33;;;;;;;52.73;41.07;;;;;;;4.90;81.77;97624.73;119447;1150;65115;-80
2020/12/30 11:04:00;;;;;;;55.70;43.07;;;;;;;4.92;81.78;97625.48;119439;1150;65188;-80
2020/12/30 11:06:26;;;;;;;49.53;40.73;;;;;;;4.91;82.21;97627.28;119194;1150;65075;-80
2020/12/30 11:08:53;;;;;;;46.47;37.20;;;;;;;4.94;81.94;97624.44;119359;1149;65113;-80
2020/12/30 11:11:19;;;;;;;48.08;37.70;;;;;;;5.01;82.10;97619.61;118962;1150;65056;-80
2020/12/30 11:13:45;;;;;;;48.90;38.33;;;;;;;5.04;81.88;97624.69;119344;1150;65190;-83
2020/12/30 11:16:12;;;;;;;53.53;41.10;;;;;;;5.09;81.80;97627.03;119389;1150;65117;-79
2020/12/30 11:18:38;;;;;;;52.43;41.10;;;;;;;5.10;81.98;97624.27;119441;1150;65122;-84
2020/12/30 11:21:04;;;;;;;53.95;40.90;;;;;;;5.14;82.05;97625.77;119157;1151;65201;-83
2020/12/30 11:23:31;;;;;;;53.43;42.13;;;;;;;5.22;82.16;97625.26;119200;1150;65062;-81
2020/12/30 11:25:57;;;;;;;53.53;42.57;;;;;;;5.21;81.89;97628.83;119173;1150;65698;-81
2020/12/30 11:28:23;;;;;;;47.40;39.40;;;;;;;5.18;81.72;97623.76;119389;1151;65111;-82